createdAt,value
2022-12-03T00:01:52.502Z,101500.19
2022-12-03T00:04:19.628Z,101498.04
2022-12-03T00:06:46.726Z,101494.00
2022-12-03T00:09:13.730Z,101496.23
2022-12-03T00:11:40.746Z,101495.95
2022-12-03T00:14:07.769Z,101499.52
2022-12-03T00:16:35.019Z,101496.68
2022-12-03T00:19:02.071Z,101495.86
2022-12-03T00:21:29.594Z,101489.27
2022-12-03T00:23:56.705Z,101489.85
2022-12-03T00:26:23.710Z,101490.54
2022-12-03T00:28:51.491Z,101487.07
2022-12-03T00:31:18.931Z,101489.43
2022-12-03T00:33:45.971Z,101490.05
2022-12-03T00:36:13.047Z,101486.38
2022-12-03T00:38:39.959Z,101483.48
2022-12-03T00:41:07.012Z,101481.56
2022-12-03T00:43:34.061Z,101480.87
2022-12-03T00:46:01.168Z,101481.80
2022-12-03T00:48:28.295Z,101486.48
2022-12-03T00:50:55.289Z,101483.92
2022-12-03T00:53:22.407Z,101486.07
2022-12-03T00:55:50.839Z,101481.13
2022-12-03T00:58:18.513Z,101479.83
2022-12-03T01:00:45.502Z,101474.24
2022-12-03T01:03:12.605Z,101472.59
2022-12-03T01:05:39.749Z,101477.18
2022-12-03T01:08:06.939Z,101473.63
2022-12-03T01:10:34.075Z,101472.77
2022-12-03T01:13:01.178Z,101472.97
2022-12-03T01:15:28.246Z,101469.96
2022-12-03T01:17:55.322Z,101466.74
2022-12-03T01:20:22.523Z,101465.83
2022-12-03T01:22:49.622Z,101465.44
2022-12-03T01:25:16.674Z,101464.08
2022-12-03T01:27:43.719Z,101462.79
2022-12-03T01:30:13.148Z,101463.12
2022-12-03T01:32:40.144Z,101465.23
2022-12-03T01:35:07.466Z,101465.53
2022-12-03T01:37:34.681Z,101465.35
2022-12-03T01:40:02.253Z,101462.88
2022-12-03T01:42:33.313Z,101460.92
2022-12-03T01:45:01.018Z,101462.13
2022-12-03T01:47:32.112Z,101463.74
2022-12-03T01:50:22.404Z,101462.70
2022-12-03T01:52:49.683Z,101460.86
2022-12-03T01:55:21.109Z,101459.80
2022-12-03T01:57:54.353Z,101459.08
2022-12-03T02:00:23.988Z,101457.88
2022-12-03T02:02:54.309Z,101454.85
2022-12-03T02:05:24.481Z,101456.34
2022-12-03T02:07:53.233Z,101451.95
2022-12-03T02:10:26.771Z,101448.30
2022-12-03T02:13:01.195Z,101448.05
2022-12-03T02:15:28.341Z,101451.33
2022-12-03T02:17:56.006Z,101452.15
2022-12-03T02:20:23.256Z,101447.00
2022-12-03T02:23:01.059Z,101449.48
2022-12-03T02:25:32.142Z,101450.98
2022-12-03T02:28:00.888Z,101450.96
2022-12-03T02:30:29.676Z,101452.36
2022-12-03T02:32:57.902Z,101450.95
2022-12-03T02:35:28.131Z,101451.59
2022-12-03T02:38:00.345Z,101451.61
2022-12-03T02:40:33.281Z,101450.23
2022-12-03T02:43:02.991Z,101450.95
2022-12-03T02:45:39.671Z,101451.88
2022-12-03T02:48:14.218Z,101448.67
2022-12-03T02:50:43.862Z,101451.92
2022-12-03T02:53:17.786Z,101447.98
2022-12-03T02:55:45.486Z,101448.84
2022-12-03T02:58:12.954Z,101449.30
2022-12-03T03:00:40.314Z,101444.13
2022-12-03T03:03:08.254Z,101446.62
2022-12-03T03:05:38.324Z,101444.52
2022-12-03T03:08:08.467Z,101445.75
2022-12-03T03:10:37.805Z,101443.22
2022-12-03T03:13:10.142Z,101444.48
2022-12-03T03:15:38.933Z,101446.14
2022-12-03T03:18:07.848Z,101443.20
2022-12-03T03:20:35.613Z,101438.83
2022-12-03T03:23:24.016Z,101438.02
2022-12-03T03:26:01.225Z,101438.63
2022-12-03T03:28:30.299Z,101439.04
2022-12-03T03:31:00.777Z,101438.58
2022-12-03T03:33:28.153Z,101430.98
2022-12-03T03:35:55.356Z,101428.39
2022-12-03T03:38:24.075Z,101425.76
2022-12-03T03:40:52.824Z,101423.29
2022-12-03T03:43:22.465Z,101419.36
2022-12-03T03:45:51.335Z,101421.43
2022-12-03T03:48:19.481Z,101416.34
2022-12-03T03:50:47.450Z,101416.35
2022-12-03T03:53:15.368Z,101412.42
2022-12-03T03:55:42.675Z,101410.84
2022-12-03T03:58:10.081Z,101408.57
2022-12-03T04:00:37.432Z,101410.39
2022-12-03T04:03:05.533Z,101409.88
2022-12-03T04:05:32.786Z,101408.14
2022-12-03T04:07:59.857Z,101407.94
2022-12-03T04:10:45.735Z,101405.20
2022-12-03T04:13:12.778Z,101408.21
2022-12-03T04:15:39.869Z,101408.10
2022-12-03T04:18:25.479Z,101403.66
2022-12-03T04:21:12.547Z,101402.80
2022-12-03T04:23:40.337Z,101406.18
2022-12-03T04:26:26.432Z,101405.98
2022-12-03T04:28:53.557Z,101405.02
2022-12-03T04:31:39.318Z,101406.11
2022-12-03T04:34:24.956Z,101404.35
2022-12-03T04:36:52.028Z,101403.33
2022-12-03T04:39:19.073Z,101403.40
2022-12-03T04:41:46.586Z,101402.13
2022-12-03T04:44:32.296Z,101403.02
2022-12-03T04:47:05.470Z,101397.36
2022-12-03T04:49:32.791Z,101396.89
2022-12-03T04:51:59.992Z,101397.21
2022-12-03T04:54:27.762Z,101396.23
2022-12-03T04:56:54.831Z,101396.64
2022-12-03T04:59:21.906Z,101400.20
2022-12-03T05:01:49.093Z,101400.92
2022-12-03T05:04:16.258Z,101396.15
2022-12-03T05:06:43.548Z,101398.15
2022-12-03T05:09:11.222Z,101392.04
2022-12-03T05:11:38.553Z,101393.73
2022-12-03T05:14:05.864Z,101392.71
2022-12-03T05:16:33.031Z,101393.80
2022-12-03T05:19:01.311Z,101394.42
2022-12-03T05:21:28.418Z,101391.88
2022-12-03T05:23:55.493Z,101392.36
2022-12-03T05:26:22.899Z,101387.36
2022-12-03T05:28:50.322Z,101390.24
2022-12-03T05:31:17.806Z,101387.16
2022-12-03T05:33:44.956Z,101384.83
2022-12-03T05:36:12.363Z,101385.67
2022-12-03T05:38:39.411Z,101383.30
2022-12-03T05:41:25.510Z,101383.77
2022-12-03T05:43:52.555Z,101382.27
2022-12-03T05:46:19.785Z,101381.16
2022-12-03T05:48:46.912Z,101383.30
2022-12-03T05:51:13.957Z,101381.71
2022-12-03T05:53:41.028Z,101380.66
2022-12-03T05:56:08.128Z,101380.38
2022-12-03T05:58:35.252Z,101383.08
2022-12-03T06:01:02.429Z,101380.09
2022-12-03T06:03:29.639Z,101378.71
2022-12-03T06:05:56.678Z,101379.19
2022-12-03T06:08:23.782Z,101376.14
2022-12-03T06:10:51.339Z,101374.89
2022-12-03T06:13:18.363Z,101377.67
2022-12-03T06:15:45.501Z,101379.59
2022-12-03T06:18:12.637Z,101377.73
2022-12-03T06:20:39.660Z,101377.56
2022-12-03T06:23:06.758Z,101378.41
2022-12-03T06:25:33.806Z,101376.60
2022-12-03T06:28:00.829Z,101380.86
2022-12-03T06:30:27.954Z,101378.90
2022-12-03T06:32:55.048Z,101377.15
2022-12-03T06:35:22.128Z,101377.91
2022-12-03T06:37:49.304Z,101378.55
2022-12-03T06:40:16.992Z,101380.20
2022-12-03T06:42:44.170Z,101378.14
2022-12-03T06:45:11.678Z,101377.86
2022-12-03T06:47:38.781Z,101378.85
2022-12-03T06:50:07.764Z,101381.71
2022-12-03T06:52:35.459Z,101380.42
2022-12-03T06:55:02.456Z,101385.09
2022-12-03T06:57:29.581Z,101381.21
2022-12-03T06:59:56.807Z,101383.73
2022-12-03T07:02:24.230Z,101382.17
2022-12-03T07:04:51.339Z,101378.73
2022-12-03T07:07:18.415Z,101379.59
2022-12-03T07:09:45.463Z,101373.88
2022-12-03T07:12:12.746Z,101375.99
2022-12-03T07:14:39.899Z,101374.21
2022-12-03T07:17:06.962Z,101372.70
2022-12-03T07:19:33.988Z,101370.07
2022-12-03T07:22:01.141Z,101369.37
2022-12-03T07:24:28.236Z,101368.70
2022-12-03T07:26:55.387Z,101366.10
2022-12-03T07:29:22.380Z,101368.09
2022-12-03T07:31:49.670Z,101366.34
2022-12-03T07:34:16.792Z,101367.64
2022-12-03T07:36:43.883Z,101368.55
2022-12-03T07:39:10.986Z,101367.92
2022-12-03T07:41:38.061Z,101370.65
2022-12-03T07:44:10.678Z,101368.40
2022-12-03T07:46:42.262Z,101371.54
2022-12-03T07:49:09.469Z,101375.58
2022-12-03T07:51:36.547Z,101374.54
2022-12-03T07:54:03.923Z,101374.19
2022-12-03T07:56:30.999Z,101374.16
2022-12-03T07:58:58.071Z,101378.80
2022-12-03T08:01:25.259Z,101377.94
2022-12-03T08:03:52.705Z,101375.25
2022-12-03T08:06:19.856Z,101375.08
2022-12-03T08:08:46.937Z,101371.00
2022-12-03T08:11:17.055Z,101370.00
2022-12-03T08:13:43.998Z,101362.55
2022-12-03T08:16:20.431Z,101361.84
2022-12-03T08:18:49.666Z,101362.93
2022-12-03T08:21:21.552Z,101360.58
2022-12-03T08:23:48.881Z,101358.67
2022-12-03T08:26:25.247Z,101359.58
2022-12-03T08:28:53.268Z,101359.73
2022-12-03T08:31:32.922Z,101356.06
2022-12-03T08:34:20.339Z,101357.91
2022-12-03T08:36:59.675Z,101357.01
2022-12-03T08:39:41.427Z,101355.11
2022-12-03T08:42:38.750Z,101356.38
2022-12-03T08:45:40.351Z,101359.80
2022-12-03T08:48:29.664Z,101357.77
2022-12-03T08:51:02.182Z,101358.29
2022-12-03T08:53:31.097Z,101358.52
2022-12-03T08:56:05.136Z,101355.27
2022-12-03T08:58:58.352Z,101353.95
2022-12-03T09:01:32.602Z,101354.69
2022-12-03T09:04:19.907Z,101356.80
2022-12-03T09:06:47.115Z,101353.54
2022-12-03T09:09:14.135Z,101354.41
2022-12-03T09:11:43.348Z,101352.73
2022-12-03T09:14:15.226Z,101349.34
2022-12-03T09:16:45.652Z,101346.27
2022-12-03T09:19:12.720Z,101344.48
2022-12-03T09:21:39.820Z,101345.52
2022-12-03T09:24:07.511Z,101347.29
2022-12-03T09:26:34.583Z,101346.19
2022-12-03T09:29:01.656Z,101340.06
2022-12-03T09:31:28.762Z,101339.50
2022-12-03T09:33:55.781Z,101337.35
2022-12-03T09:36:22.832Z,101337.55
2022-12-03T09:38:50.310Z,101336.53
2022-12-03T09:41:17.487Z,101338.67
2022-12-03T09:44:03.282Z,101337.63
2022-12-03T09:46:31.622Z,101336.40
2022-12-03T09:48:59.060Z,101338.75
2022-12-03T09:51:30.335Z,101337.36
2022-12-03T09:53:59.713Z,101336.69
2022-12-03T09:56:26.913Z,101335.95
2022-12-03T09:58:54.574Z,101332.65
2022-12-03T10:01:22.087Z,101330.40
2022-12-03T10:03:52.977Z,101328.10
2022-12-03T10:06:22.983Z,101327.67
2022-12-03T10:08:53.626Z,101327.75
2022-12-03T10:11:24.384Z,101325.77
2022-12-03T10:13:56.473Z,101320.00
2022-12-03T10:16:26.095Z,101321.77
2022-12-03T10:18:56.584Z,101320.44
2022-12-03T10:21:35.561Z,101317.76
2022-12-03T10:24:23.816Z,101322.95
2022-12-03T10:26:53.297Z,101319.27
2022-12-03T10:29:28.319Z,101317.80
2022-12-03T10:32:03.318Z,101318.11
2022-12-03T10:34:33.563Z,101324.05
2022-12-03T10:37:19.957Z,101322.47
2022-12-03T10:39:57.171Z,101320.37
2022-12-03T10:42:26.885Z,101318.23
2022-12-03T10:45:18.137Z,101316.50
2022-12-03T10:48:04.317Z,101317.07
2022-12-03T10:50:31.929Z,101321.77
2022-12-03T10:52:59.412Z,101320.20
2022-12-03T10:55:28.867Z,101317.16
2022-12-03T10:57:55.967Z,101314.30
2022-12-03T11:00:23.669Z,101311.46
2022-12-03T11:02:56.799Z,101311.83
2022-12-03T11:05:28.490Z,101304.91
2022-12-03T11:07:56.742Z,101307.58
2022-12-03T11:10:24.294Z,101303.49
2022-12-03T11:13:27.510Z,101299.41
2022-12-03T11:15:55.308Z,101299.05
2022-12-03T11:18:36.327Z,101299.49
2022-12-03T11:21:11.337Z,101295.70
2022-12-03T11:24:02.328Z,101295.88
2022-12-03T11:26:29.319Z,101287.34
2022-12-03T11:28:58.619Z,101286.90
2022-12-03T11:31:39.439Z,101283.45
2022-12-03T11:34:18.778Z,101278.31
2022-12-03T11:37:11.308Z,101274.34
2022-12-03T11:39:50.801Z,101262.33
2022-12-03T11:42:27.089Z,101261.48
2022-12-03T11:45:03.647Z,101260.41
2022-12-03T11:47:41.634Z,101258.90
2022-12-03T11:50:32.576Z,101256.20
2022-12-03T11:53:07.905Z,101255.66
2022-12-03T11:55:38.980Z,101252.98
2022-12-03T11:58:26.036Z,101249.58
2022-12-03T12:00:56.081Z,101253.02
2022-12-03T12:03:44.516Z,101252.47
2022-12-03T12:06:20.686Z,101249.74
2022-12-03T12:08:51.226Z,101245.89
2022-12-03T12:11:40.571Z,101244.79
2022-12-03T12:14:11.486Z,101246.55
2022-12-03T12:17:05.181Z,101245.70
2022-12-03T12:19:35.239Z,101244.92
2022-12-03T12:22:27.243Z,101240.41
2022-12-03T12:24:56.892Z,101242.23
2022-12-03T12:27:49.515Z,101244.92
2022-12-03T12:30:21.889Z,101246.63
2022-12-03T12:32:53.658Z,101244.23
2022-12-03T12:35:25.988Z,101243.63
2022-12-03T12:38:02.964Z,101248.60
2022-12-03T12:40:32.412Z,101248.66
2022-12-03T12:43:11.870Z,101249.40
2022-12-03T12:45:42.998Z,101249.73
2022-12-03T12:48:10.142Z,101249.78
2022-12-03T12:50:38.311Z,101252.66
2022-12-03T12:53:11.298Z,101255.70
2022-12-03T12:55:39.781Z,101248.50
2022-12-03T12:58:17.965Z,101241.73
2022-12-03T13:00:53.539Z,101236.20
2022-12-03T13:03:21.872Z,101230.04
2022-12-03T13:05:50.578Z,101232.55
2022-12-03T13:08:26.475Z,101232.69
2022-12-03T13:10:55.888Z,101243.05
2022-12-03T13:13:26.087Z,101237.07
2022-12-03T13:16:00.909Z,101240.90
2022-12-03T13:18:33.007Z,101243.90
2022-12-03T13:21:11.856Z,101240.36
2022-12-03T13:23:40.332Z,101245.31
2022-12-03T13:26:40.055Z,101241.73
2022-12-03T13:29:16.808Z,101242.24
2022-12-03T13:31:53.113Z,101244.02
2022-12-03T13:34:23.163Z,101243.45
2022-12-03T13:36:57.469Z,101245.26
2022-12-03T13:39:47.748Z,101245.11
2022-12-03T13:42:33.205Z,101242.65
2022-12-03T13:45:02.663Z,101242.52
2022-12-03T13:47:29.758Z,101246.11
2022-12-03T13:50:03.718Z,101245.70
2022-12-03T13:52:34.764Z,101245.17
2022-12-03T13:55:03.604Z,101247.17
2022-12-03T13:57:30.674Z,101250.08
2022-12-03T13:59:57.723Z,101248.18
2022-12-03T14:02:24.862Z,101245.59
2022-12-03T14:04:58.438Z,101244.09
2022-12-03T14:07:27.273Z,101242.81
2022-12-03T14:09:54.572Z,101240.84
2022-12-03T14:12:27.481Z,101244.98
2022-12-03T14:14:54.586Z,101251.83
2022-12-03T14:17:21.675Z,101251.85
2022-12-03T14:19:48.799Z,101246.34
2022-12-03T14:22:15.798Z,101244.08
2022-12-03T14:24:42.898Z,101247.73
2022-12-03T14:27:09.939Z,101248.88
2022-12-03T14:29:36.916Z,101244.83
2022-12-03T14:32:04.060Z,101240.79
2022-12-03T14:34:31.219Z,101237.77
2022-12-03T14:36:58.241Z,101239.23
2022-12-03T14:39:25.904Z,101236.30
2022-12-03T14:42:11.639Z,101231.05
2022-12-03T14:44:41.404Z,101230.77
2022-12-03T14:47:08.911Z,101232.52
2022-12-03T14:49:36.451Z,101230.81
2022-12-03T14:52:03.851Z,101232.88
2022-12-03T14:54:30.837Z,101231.08
2022-12-03T14:56:58.459Z,101231.09
2022-12-03T14:59:27.949Z,101230.00
2022-12-03T15:01:55.746Z,101224.54
2022-12-03T15:04:22.875Z,101224.96
2022-12-03T15:06:49.903Z,101222.98
2022-12-03T15:09:17.003Z,101226.05
2022-12-03T15:11:46.319Z,101226.61
2022-12-03T15:14:14.120Z,101230.09
2022-12-03T15:16:41.174Z,101233.89
2022-12-03T15:19:08.294Z,101238.37
2022-12-03T15:21:35.393Z,101238.17
2022-12-03T15:24:02.801Z,101244.94
2022-12-03T15:26:30.278Z,101248.27
2022-12-03T15:28:57.412Z,101243.73
2022-12-03T15:31:24.597Z,101244.82
2022-12-03T15:33:51.733Z,101245.23
2022-12-03T15:36:18.886Z,101242.70
2022-12-03T15:38:45.984Z,101243.73
2022-12-03T15:41:24.251Z,101239.80
2022-12-03T15:43:54.850Z,101237.16
2022-12-03T15:46:22.026Z,101234.95
2022-12-03T15:48:49.259Z,101234.59
2022-12-03T15:51:16.712Z,101233.73
2022-12-03T15:53:43.890Z,101233.23
2022-12-03T15:56:12.192Z,101235.59
2022-12-03T15:58:39.827Z,101239.75
2022-12-03T16:01:08.555Z,101238.61
2022-12-03T16:03:36.413Z,101237.98
2022-12-03T16:06:03.611Z,101243.48
2022-12-03T16:08:30.707Z,101245.71
2022-12-03T16:10:57.935Z,101240.82
2022-12-03T16:13:25.031Z,101241.76
2022-12-03T16:15:52.194Z,101241.61
2022-12-03T16:18:19.337Z,101240.27
2022-12-03T16:20:46.463Z,101237.22
2022-12-03T16:23:13.559Z,101236.66
2022-12-03T16:25:40.582Z,101236.39
2022-12-03T16:28:07.605Z,101237.05
2022-12-03T16:30:36.343Z,101240.11
2022-12-03T16:33:03.596Z,101243.02
2022-12-03T16:35:30.772Z,101245.23
2022-12-03T16:37:57.770Z,101246.75
2022-12-03T16:40:24.846Z,101246.09
2022-12-03T16:42:51.916Z,101250.98
2022-12-03T16:45:21.989Z,101246.75
2022-12-03T16:47:49.806Z,101248.23
2022-12-03T16:50:24.407Z,101249.80
2022-12-03T16:52:51.706Z,101250.06
2022-12-03T16:55:18.703Z,101248.47
2022-12-03T16:57:45.752Z,101248.23
2022-12-03T17:00:13.543Z,101246.02
2022-12-03T17:02:40.656Z,101242.91
2022-12-03T17:05:08.174Z,101237.38
2022-12-03T17:07:35.309Z,101237.64
2022-12-03T17:10:02.382Z,101239.52
2022-12-03T17:12:42.109Z,101241.86
2022-12-03T17:15:10.142Z,101239.94
2022-12-03T17:17:37.371Z,101238.76
2022-12-03T17:20:06.286Z,101238.09
2022-12-03T17:22:33.308Z,101236.71
2022-12-03T17:25:00.382Z,101233.58
2022-12-03T17:27:27.431Z,101238.83
2022-12-03T17:29:54.705Z,101235.06
2022-12-03T17:32:21.935Z,101244.04
2022-12-03T17:34:48.909Z,101244.53
2022-12-03T17:37:15.982Z,101242.63
2022-12-03T17:39:43.056Z,101243.21
2022-12-03T17:42:10.102Z,101247.95
2022-12-03T17:44:37.150Z,101245.08
2022-12-03T17:47:04.351Z,101248.23
2022-12-03T17:49:31.921Z,101247.11
2022-12-03T17:51:59.126Z,101251.73
2022-12-03T17:54:34.092Z,101249.83
2022-12-03T17:57:10.593Z,101247.98
2022-12-03T17:59:37.642Z,101246.02
2022-12-03T18:02:04.734Z,101244.25
2022-12-03T18:04:31.938Z,101242.66
2022-12-03T18:07:02.161Z,101237.55
2022-12-03T18:09:29.807Z,101238.77
2022-12-03T18:11:56.904Z,101239.25
2022-12-03T18:14:23.899Z,101241.11
2022-12-03T18:16:50.918Z,101241.40
2022-12-03T18:19:18.072Z,101234.33
2022-12-03T18:21:45.094Z,101230.15
2022-12-03T18:24:12.242Z,101223.30
2022-12-03T18:26:39.424Z,101228.68
2022-12-03T18:29:06.362Z,101229.27
2022-12-03T18:31:33.546Z,101227.14
2022-12-03T18:34:00.718Z,101227.67
2022-12-03T18:36:33.656Z,101231.84
2022-12-03T18:39:01.191Z,101236.13
2022-12-03T18:41:28.724Z,101232.45
2022-12-03T18:43:55.849Z,101233.20
2022-12-03T18:46:51.931Z,101227.02
2022-12-03T18:49:10.531Z,101227.81
2022-12-03T18:51:37.883Z,101226.29
2022-12-03T18:54:11.436Z,101230.40
2022-12-03T18:56:38.432Z,101227.98
2022-12-03T18:59:07.492Z,101227.33
2022-12-03T19:01:35.320Z,101234.96
2022-12-03T19:04:02.545Z,101234.05
2022-12-03T19:06:30.696Z,101235.41
2022-12-03T19:08:57.920Z,101244.52
2022-12-03T19:11:24.911Z,101242.77
2022-12-03T19:13:52.252Z,101240.85
2022-12-03T19:16:19.324Z,101239.27
2022-12-03T19:18:46.316Z,101240.88
2022-12-03T19:21:15.547Z,101242.91
2022-12-03T19:24:04.139Z,101241.59
2022-12-03T19:26:30.840Z,101246.31
2022-12-03T19:28:57.960Z,101243.91
2022-12-03T19:31:25.154Z,101240.78
2022-12-03T19:33:52.236Z,101245.36
2022-12-03T19:36:22.818Z,101245.14
2022-12-03T19:38:56.601Z,101245.79
2022-12-03T19:41:28.059Z,101249.47
2022-12-03T19:43:56.376Z,101249.35
2022-12-03T19:46:26.202Z,101249.52
2022-12-03T19:48:54.177Z,101252.49
2022-12-03T19:51:36.747Z,101250.24
2022-12-03T19:54:05.793Z,101253.83
2022-12-03T19:56:33.841Z,101248.39
2022-12-03T19:59:00.996Z,101251.99
2022-12-03T20:01:30.944Z,101253.08
2022-12-03T20:04:00.248Z,101251.73
2022-12-03T20:06:30.365Z,101253.37
2022-12-03T20:08:59.550Z,101246.56
2022-12-03T20:11:29.543Z,101244.98
2022-12-03T20:13:58.869Z,101252.73
2022-12-03T20:16:27.240Z,101254.60
2022-12-03T20:18:59.957Z,101249.73
2022-12-03T20:21:29.972Z,101245.91
2022-12-03T20:23:57.333Z,101243.42
2022-12-03T20:26:25.299Z,101239.19
2022-12-03T20:28:57.468Z,101231.98
2022-12-03T20:31:27.732Z,101228.71
2022-12-03T20:33:57.398Z,101235.56
2022-12-03T20:36:25.240Z,101235.13
2022-12-03T20:39:02.120Z,101233.80
2022-12-03T20:41:29.243Z,101235.63
2022-12-03T20:43:56.834Z,101242.11
2022-12-03T20:46:25.905Z,101248.45
2022-12-03T20:48:56.630Z,101244.94
2022-12-03T20:51:26.400Z,101251.73
2022-12-03T20:53:54.611Z,101253.84
2022-12-03T20:56:24.798Z,101259.76
2022-12-03T20:58:53.320Z,101258.67
2022-12-03T21:01:26.852Z,101254.20
2022-12-03T21:03:56.236Z,101248.88
2022-12-03T21:06:26.301Z,101246.04
2022-12-03T21:08:54.344Z,101241.96
2022-12-03T21:11:24.312Z,101235.34
2022-12-03T21:13:52.495Z,101234.48
2022-12-03T21:16:39.493Z,101239.79
2022-12-03T21:19:09.828Z,101239.66
2022-12-03T21:21:37.156Z,101239.17
2022-12-03T21:24:04.333Z,101246.19
2022-12-03T21:26:31.432Z,101246.17
2022-12-03T21:28:58.560Z,101248.83
2022-12-03T21:31:26.939Z,101244.89
2022-12-03T21:33:55.702Z,101245.77
2022-12-03T21:36:23.695Z,101247.23
2022-12-03T21:38:50.975Z,101248.55
2022-12-03T21:41:18.371Z,101243.70
2022-12-03T21:43:45.532Z,101248.06
2022-12-03T21:47:08.271Z,101242.02
2022-12-03T21:49:02.215Z,101246.45
2022-12-03T21:51:29.715Z,101244.73
2022-12-03T21:53:56.741Z,101239.16
2022-12-03T21:56:23.656Z,101240.73
2022-12-03T21:58:50.709Z,101241.36
2022-12-03T22:01:23.530Z,101242.52
2022-12-03T22:03:51.037Z,101242.42
2022-12-03T22:06:18.885Z,101240.11
2022-12-03T22:08:46.242Z,101240.65
2022-12-03T22:11:16.470Z,101236.08
2022-12-03T22:13:43.879Z,101233.31
2022-12-03T22:16:13.756Z,101236.34
2022-12-03T22:18:41.301Z,101239.13
2022-12-03T22:21:14.005Z,101237.04
2022-12-03T22:23:41.669Z,101237.35
2022-12-03T22:26:13.097Z,101236.87
2022-12-03T22:28:44.276Z,101234.27
2022-12-03T22:31:11.574Z,101234.91
2022-12-03T22:33:39.461Z,101234.05
2022-12-03T22:36:13.383Z,101242.15
2022-12-03T22:38:45.642Z,101247.30
2022-12-03T22:41:14.406Z,101247.55
2022-12-03T22:43:42.298Z,101246.15
2022-12-03T22:46:13.383Z,101238.54
2022-12-03T22:48:42.543Z,101233.30
2022-12-03T22:51:19.420Z,101237.50
2022-12-03T22:53:47.208Z,101236.45
2022-12-03T22:56:14.923Z,101235.80
2022-12-03T22:58:42.045Z,101233.00
2022-12-03T23:01:09.121Z,101232.16
2022-12-03T23:03:37.214Z,101225.40
2022-12-03T23:06:11.590Z,101226.16
2022-12-03T23:08:38.665Z,101222.92
2022-12-03T23:11:06.087Z,101224.22
2022-12-03T23:13:33.140Z,101225.84
2022-12-03T23:16:00.234Z,101228.23
2022-12-03T23:18:27.699Z,101227.27
2022-12-03T23:20:56.592Z,101229.77
2022-12-03T23:23:25.915Z,101227.41
2022-12-03T23:26:02.195Z,101225.23
2022-12-03T23:28:31.019Z,101222.77
2022-12-03T23:30:58.145Z,101220.82
2022-12-03T23:33:25.705Z,101221.23
2022-12-03T23:35:52.831Z,101217.38
2022-12-03T23:38:21.337Z,101217.36
2022-12-03T23:40:48.923Z,101219.89
2022-12-03T23:43:16.569Z,101216.54
2022-12-03T23:45:43.685Z,101213.23
2022-12-03T23:48:10.759Z,101209.39
2022-12-03T23:50:41.552Z,101211.49
2022-12-03T23:53:09.162Z,101211.67
2022-12-03T23:55:40.001Z,101203.45
2022-12-03T23:58:07.476Z,101200.77
